createdAt,value
2023-03-05T00:01:42.103Z,0.77
2023-03-05T00:04:16.001Z,1.13
2023-03-05T00:06:45.996Z,0.82
2023-03-05T00:09:17.171Z,0.39
2023-03-05T00:11:47.080Z,0.07
2023-03-05T00:14:16.831Z,0.70
2023-03-05T00:16:46.075Z,0.63
2023-03-05T00:19:15.616Z,0.49
2023-03-05T00:21:45.722Z,0.95
2023-03-05T00:24:18.704Z,0.71
2023-03-05T00:26:49.035Z,0.74
2023-03-05T00:29:22.027Z,0.42
2023-03-05T00:31:51.734Z,0.52
2023-03-05T00:34:21.543Z,0.65
2023-03-05T00:36:53.184Z,0.28
2023-03-05T00:39:24.234Z,0.20
2023-03-05T00:41:53.726Z,0.40
2023-03-05T00:44:23.244Z,0.58
2023-03-05T00:46:53.224Z,0.72
2023-03-05T00:49:22.781Z,0.38
2023-03-05T00:51:52.160Z,0.36
2023-03-05T00:54:22.180Z,0.10
2023-03-05T00:56:53.331Z,-0.06
2023-03-05T00:59:22.517Z,0.13
2023-03-05T01:01:52.251Z,0.61
2023-03-05T01:04:21.863Z,0.31
2023-03-05T01:06:51.515Z,0.25
2023-03-05T01:09:22.112Z,0.27
2023-03-05T01:11:53.641Z,0.46
2023-03-05T01:14:23.550Z,0.41
2023-03-05T01:16:53.236Z,0.16
2023-03-05T01:19:25.591Z,0.09
2023-03-05T01:21:55.801Z,0.10
2023-03-05T01:24:25.702Z,0.04
2023-03-05T01:26:56.393Z,0.28
2023-03-05T01:29:26.788Z,0.10
2023-03-05T01:31:56.086Z,0.23
2023-03-05T01:34:25.712Z,0.33
2023-03-05T01:36:55.449Z,0.07
2023-03-05T01:39:25.510Z,0.26
2023-03-05T01:41:56.842Z,-0.03
2023-03-05T01:44:29.794Z,-0.12
2023-03-05T01:46:58.981Z,0.15
2023-03-05T01:49:29.361Z,0.23
2023-03-05T01:52:05.478Z,0.04
2023-03-05T01:54:38.693Z,0.75
2023-03-05T01:57:16.114Z,0.50
2023-03-05T01:59:49.961Z,0.62
2023-03-05T02:02:22.417Z,0.18
2023-03-05T02:04:56.396Z,-0.11
2023-03-05T02:07:26.735Z,0.00
2023-03-05T02:09:56.676Z,0.07
2023-03-05T02:12:28.100Z,-0.07
2023-03-05T02:15:18.598Z,0.01
2023-03-05T02:17:47.902Z,0.00
2023-03-05T02:20:21.608Z,0.01
2023-03-05T02:22:52.501Z,0.06
2023-03-05T02:25:23.904Z,-0.27
2023-03-05T02:27:58.730Z,-0.30
2023-03-05T02:30:31.046Z,-0.13
2023-03-05T02:33:00.922Z,0.10
2023-03-05T02:35:31.025Z,-0.03
2023-03-05T02:38:01.883Z,0.29
2023-03-05T02:40:31.137Z,0.29
2023-03-05T02:43:00.216Z,0.24
2023-03-05T02:45:29.836Z,0.34
2023-03-05T02:47:58.972Z,0.25
2023-03-05T02:50:29.771Z,-0.12
2023-03-05T02:53:00.693Z,-0.22
2023-03-05T02:55:31.165Z,-0.35
2023-03-05T02:58:01.778Z,-0.38
2023-03-05T03:00:31.602Z,-0.39
2023-03-05T03:03:00.826Z,-0.37
2023-03-05T03:05:29.956Z,-0.53
2023-03-05T03:07:59.069Z,-0.55
2023-03-05T03:10:29.711Z,-0.71
2023-03-05T03:12:58.721Z,-0.57
2023-03-05T03:15:28.280Z,-1.03
2023-03-05T03:17:57.348Z,-0.80
2023-03-05T03:20:26.593Z,-0.82
2023-03-05T03:22:55.726Z,-0.90
2023-03-05T03:25:25.422Z,-0.80
2023-03-05T03:27:56.238Z,-1.09
2023-03-05T03:30:25.509Z,-1.09
2023-03-05T03:32:54.767Z,-0.88
2023-03-05T03:35:24.463Z,-0.87
2023-03-05T03:37:53.659Z,-1.12
2023-03-05T03:40:23.173Z,-0.97
2023-03-05T03:42:54.098Z,-0.80
2023-03-05T03:45:24.867Z,-0.69
2023-03-05T03:47:54.329Z,-0.63
2023-03-05T03:50:25.178Z,-0.43
2023-03-05T03:52:54.676Z,-0.67
2023-03-05T03:55:23.881Z,-0.99
2023-03-05T03:57:53.482Z,-0.63
2023-03-05T04:00:24.534Z,-0.65
2023-03-05T04:02:54.220Z,-0.54
2023-03-05T04:05:23.252Z,-0.48
2023-03-05T04:07:52.765Z,-0.80
2023-03-05T04:10:22.244Z,-0.94
2023-03-05T04:12:51.648Z,-0.65
2023-03-05T04:15:21.252Z,-0.46
2023-03-05T04:17:51.703Z,-0.52
2023-03-05T04:20:21.706Z,-0.71
2023-03-05T04:22:51.918Z,-0.70
2023-03-05T04:25:21.532Z,-0.72
2023-03-05T04:27:53.569Z,-0.55
2023-03-05T04:30:23.332Z,-0.44
2023-03-05T04:32:54.544Z,-0.59
2023-03-05T04:35:24.293Z,-0.78
2023-03-05T04:37:53.627Z,-0.48
2023-03-05T04:40:23.870Z,-0.51
2023-03-05T04:42:53.584Z,-0.86
2023-03-05T04:45:23.288Z,-0.78
2023-03-05T04:47:57.711Z,-0.80
2023-03-05T04:50:27.779Z,-0.53
2023-03-05T04:52:57.445Z,-0.72
2023-03-05T04:55:27.098Z,-0.28
2023-03-05T04:57:56.909Z,-0.12
2023-03-05T05:00:30.268Z,-0.32
2023-03-05T05:03:01.673Z,-0.30
2023-03-05T05:05:31.550Z,-0.45
2023-03-05T05:08:01.847Z,-0.30
2023-03-05T05:10:34.230Z,-0.51
2023-03-05T05:13:05.809Z,-0.10
2023-03-05T05:15:34.697Z,-0.33
2023-03-05T05:18:04.649Z,0.02
2023-03-05T05:20:33.133Z,-0.17
2023-03-05T05:23:01.565Z,-0.34
2023-03-05T05:25:30.101Z,0.08
2023-03-05T05:27:58.666Z,-0.24
2023-03-05T05:30:27.040Z,0.19
2023-03-05T05:32:55.476Z,-0.11
2023-03-05T05:35:25.552Z,-0.19
2023-03-05T05:37:54.209Z,-0.41
2023-03-05T05:40:22.769Z,-0.22
2023-03-05T05:42:51.121Z,0.35
2023-03-05T05:45:19.710Z,0.08
2023-03-05T05:47:48.352Z,0.39
2023-03-05T05:50:16.761Z,0.32
2023-03-05T05:52:46.722Z,0.55
2023-03-05T05:55:15.506Z,0.42
2023-03-05T05:57:43.886Z,0.53
2023-03-05T06:00:14.858Z,0.63
2023-03-05T06:02:44.794Z,1.12
2023-03-05T06:05:16.053Z,1.01
2023-03-05T06:07:44.941Z,1.09
2023-03-05T06:10:14.574Z,1.43
2023-03-05T06:12:43.085Z,0.53
2023-03-05T06:15:11.922Z,0.68
2023-03-05T06:17:40.623Z,1.23
2023-03-05T06:20:10.405Z,0.87
2023-03-05T06:22:43.394Z,0.71
2023-03-05T06:25:12.402Z,0.97
2023-03-05T06:27:45.615Z,1.45
2023-03-05T06:30:15.004Z,1.36
2023-03-05T06:32:43.526Z,1.10
2023-03-05T06:35:12.057Z,1.55
2023-03-05T06:37:40.374Z,1.20
2023-03-05T06:40:10.310Z,0.81
2023-03-05T06:42:38.747Z,0.64
2023-03-05T06:45:10.639Z,1.04
2023-03-05T06:47:39.338Z,1.01
2023-03-05T06:50:08.619Z,1.18
2023-03-05T06:52:38.938Z,0.76
2023-03-05T06:55:07.901Z,0.63
2023-03-05T06:57:36.326Z,0.53
2023-03-05T07:00:10.181Z,0.91
2023-03-05T07:02:40.647Z,1.15
2023-03-05T07:05:09.874Z,1.14
2023-03-05T07:07:38.467Z,0.86
2023-03-05T07:10:08.726Z,0.96
2023-03-05T07:12:38.900Z,1.10
2023-03-05T07:15:08.627Z,0.77
2023-03-05T07:17:37.345Z,0.69
2023-03-05T07:20:07.815Z,0.95
2023-03-05T07:22:38.745Z,0.61
2023-03-05T07:25:08.567Z,0.61
2023-03-05T07:27:38.129Z,0.47
2023-03-05T07:30:07.945Z,0.73
2023-03-05T07:32:37.364Z,0.58
2023-03-05T07:35:08.494Z,0.42
2023-03-05T07:37:37.109Z,0.74
2023-03-05T07:40:06.885Z,0.54
2023-03-05T07:42:37.419Z,0.64
2023-03-05T07:45:15.318Z,0.83
2023-03-05T07:47:43.692Z,1.37
2023-03-05T07:50:13.862Z,1.33
2023-03-05T07:52:42.521Z,1.59
2023-03-05T07:55:12.132Z,1.56
2023-03-05T07:57:41.241Z,1.20
2023-03-05T08:00:11.871Z,1.09
2023-03-05T08:02:41.511Z,0.69
2023-03-05T08:05:10.285Z,1.15
2023-03-05T08:07:40.260Z,0.85
2023-03-05T08:10:10.624Z,0.80
2023-03-05T08:12:39.144Z,1.36
2023-03-05T08:15:08.940Z,1.43
2023-03-05T08:17:37.506Z,1.48
2023-03-05T08:20:10.907Z,1.65
2023-03-05T08:22:40.992Z,1.51
2023-03-05T08:25:10.224Z,1.40
2023-03-05T08:27:41.005Z,0.98
2023-03-05T08:30:12.356Z,0.71
2023-03-05T08:32:41.541Z,0.93
2023-03-05T08:35:10.747Z,1.15
2023-03-05T08:37:40.807Z,1.35
2023-03-05T08:40:11.350Z,1.71
2023-03-05T08:42:41.586Z,1.24
2023-03-05T08:45:11.582Z,1.57
2023-03-05T08:47:40.565Z,1.82
2023-03-05T08:50:10.190Z,1.75
2023-03-05T08:52:40.359Z,2.38
2023-03-05T08:55:09.660Z,2.56
2023-03-05T08:57:38.316Z,2.29
2023-03-05T09:00:10.409Z,1.90
2023-03-05T09:02:38.987Z,1.55
2023-03-05T09:05:08.366Z,1.46
2023-03-05T09:07:38.211Z,1.04
2023-03-05T09:10:12.857Z,1.11
2023-03-05T09:12:41.787Z,1.28
2023-03-05T09:15:12.407Z,0.75
2023-03-05T09:17:45.299Z,0.47
2023-03-05T09:20:15.568Z,0.36
2023-03-05T09:22:44.161Z,0.56
2023-03-05T09:25:14.193Z,0.91
2023-03-05T09:27:45.875Z,1.69
2023-03-05T09:30:15.568Z,1.86
2023-03-05T09:32:44.212Z,2.07
2023-03-05T09:35:12.991Z,2.74
2023-03-05T09:37:41.506Z,1.88
2023-03-05T09:40:19.416Z,2.37
2023-03-05T09:43:02.928Z,3.20
2023-03-05T09:45:39.648Z,2.80
2023-03-05T09:48:18.223Z,3.14
2023-03-05T09:50:51.256Z,2.35
2023-03-05T09:53:37.606Z,2.17
2023-03-05T09:56:13.136Z,2.28
2023-03-05T09:58:43.807Z,2.06
2023-03-05T10:01:14.988Z,1.44
2023-03-05T10:03:56.971Z,1.27
2023-03-05T10:06:28.379Z,1.32
2023-03-05T10:08:59.379Z,1.19
2023-03-05T10:11:51.637Z,1.48
2023-03-05T10:14:27.489Z,1.49
2023-03-05T10:17:27.775Z,0.96
2023-03-05T10:20:26.095Z,0.57
2023-03-05T10:23:10.960Z,0.12
2023-03-05T10:25:56.151Z,0.20
2023-03-05T10:28:35.168Z,0.78
2023-03-05T10:31:25.002Z,0.66
2023-03-05T10:34:05.149Z,0.65
2023-03-05T10:36:48.391Z,0.63
2023-03-05T10:39:44.704Z,1.06
2023-03-05T10:42:24.441Z,0.89
2023-03-05T10:44:57.687Z,0.71
2023-03-05T10:47:30.678Z,0.78
2023-03-05T10:50:00.689Z,1.22
2023-03-05T10:52:34.711Z,1.29
2023-03-05T10:55:04.633Z,0.92
2023-03-05T10:57:33.687Z,0.55
2023-03-05T11:00:19.332Z,0.98
2023-03-05T11:02:58.386Z,0.60
2023-03-05T11:05:43.522Z,1.09
2023-03-05T11:08:28.870Z,0.84
2023-03-05T11:11:16.755Z,0.62
2023-03-05T11:13:58.993Z,0.49
2023-03-05T11:16:31.422Z,0.42
2023-03-05T11:19:18.714Z,0.58
2023-03-05T11:21:48.783Z,0.65
2023-03-05T11:24:19.316Z,0.58
2023-03-05T11:26:50.432Z,0.87
2023-03-05T11:29:22.822Z,0.55
2023-03-05T11:31:53.810Z,1.03
2023-03-05T11:34:31.518Z,0.37
2023-03-05T11:37:08.236Z,0.73
2023-03-05T11:39:40.400Z,0.35
2023-03-05T11:42:15.097Z,0.63
2023-03-05T11:44:49.848Z,1.41
2023-03-05T11:47:27.918Z,1.46
2023-03-05T11:50:03.055Z,1.24
2023-03-05T11:52:35.997Z,1.25
2023-03-05T11:55:10.044Z,0.64
2023-03-05T11:57:47.513Z,0.85
2023-03-05T12:00:21.055Z,1.04
2023-03-05T12:02:55.954Z,0.82
2023-03-05T12:05:24.873Z,0.54
2023-03-05T12:07:57.016Z,1.03
2023-03-05T12:10:27.255Z,0.85
2023-03-05T12:13:01.688Z,1.09
2023-03-05T12:15:40.044Z,0.96
2023-03-05T12:18:28.407Z,0.67
2023-03-05T12:21:06.599Z,0.64
2023-03-05T12:23:47.456Z,0.48
2023-03-05T12:26:16.391Z,0.08
2023-03-05T12:28:57.275Z,0.09
2023-03-05T12:31:40.212Z,0.33
2023-03-05T12:34:57.666Z,0.33
2023-03-05T12:38:17.184Z,0.89
2023-03-05T12:40:53.736Z,1.21
2023-03-05T12:43:33.770Z,0.88
2023-03-05T12:46:24.456Z,0.05
2023-03-05T12:48:53.548Z,0.71
2023-03-05T12:51:36.457Z,0.50
2023-03-05T12:54:36.723Z,0.32
2023-03-05T12:57:15.315Z,0.69
2023-03-05T12:59:46.502Z,0.85
2023-03-05T13:02:26.633Z,0.32
2023-03-05T13:04:59.906Z,0.33
2023-03-05T13:07:28.543Z,0.90
2023-03-05T13:09:58.400Z,0.56
2023-03-05T13:12:31.477Z,0.70
2023-03-05T13:15:03.844Z,1.26
2023-03-05T13:17:38.242Z,1.18
2023-03-05T13:20:26.796Z,0.78
2023-03-05T13:23:09.212Z,1.06
2023-03-05T13:25:37.786Z,0.60
2023-03-05T13:28:18.157Z,0.63
2023-03-05T13:30:51.674Z,0.58
2023-03-05T13:33:28.463Z,0.36
2023-03-05T13:36:03.044Z,0.26
2023-03-05T13:38:38.270Z,0.31
2023-03-05T13:41:18.195Z,0.48
2023-03-05T13:43:49.660Z,0.17
2023-03-05T13:46:27.060Z,0.34
2023-03-05T13:48:57.468Z,0.04
2023-03-05T13:51:43.584Z,0.18
2023-03-05T13:54:15.981Z,-0.12
2023-03-05T13:56:58.631Z,-0.29
2023-03-05T13:59:32.743Z,-0.43
2023-03-05T14:02:03.074Z,-0.19
2023-03-05T14:04:40.537Z,-0.33
2023-03-05T14:07:27.202Z,-0.14
2023-03-05T14:09:57.003Z,-0.19
2023-03-05T14:12:32.370Z,-0.51
2023-03-05T14:15:07.065Z,-0.48
2023-03-05T14:17:42.457Z,-0.16
2023-03-05T14:20:23.303Z,-0.49
2023-03-05T14:22:53.954Z,-0.21
2023-03-05T14:25:38.635Z,-0.28
2023-03-05T14:28:09.731Z,-0.03
2023-03-05T14:30:39.896Z,-0.25
2023-03-05T14:33:08.636Z,0.41
2023-03-05T14:35:38.291Z,0.20
2023-03-05T14:38:08.576Z,-0.12
2023-03-05T14:40:38.326Z,-0.16
2023-03-05T14:43:08.127Z,-0.43
2023-03-05T14:45:40.934Z,-0.43
2023-03-05T14:48:10.153Z,-0.63
2023-03-05T14:50:43.038Z,-0.60
2023-03-05T14:53:16.336Z,-0.65
2023-03-05T14:55:48.025Z,-0.48
2023-03-05T14:58:26.862Z,-0.73
2023-03-05T15:00:57.334Z,-0.68
2023-03-05T15:03:28.179Z,-0.59
2023-03-05T15:06:00.101Z,-0.62
2023-03-05T15:08:30.522Z,-0.64
2023-03-05T15:10:59.896Z,-0.91
2023-03-05T15:13:28.868Z,-0.92
2023-03-05T15:16:01.387Z,-0.82
2023-03-05T15:18:30.250Z,-0.72
2023-03-05T15:21:02.731Z,-0.39
2023-03-05T15:23:37.833Z,-0.64
2023-03-05T15:26:08.735Z,-0.45
2023-03-05T15:28:38.421Z,-0.23
2023-03-05T15:31:09.394Z,-0.55
2023-03-05T15:33:38.529Z,-0.46
2023-03-05T15:36:08.926Z,-0.41
2023-03-05T15:38:39.039Z,-0.42
2023-03-05T15:41:09.240Z,-0.51
2023-03-05T15:43:41.147Z,-0.77
2023-03-05T15:46:11.216Z,-0.86
2023-03-05T15:48:39.879Z,-0.77
2023-03-05T15:51:09.390Z,-0.43
2023-03-05T15:53:38.805Z,-0.57
2023-03-05T15:56:08.415Z,-0.55
2023-03-05T15:58:42.484Z,-0.87
2023-03-05T16:01:20.993Z,-0.49
2023-03-05T16:03:53.966Z,-0.39
2023-03-05T16:06:24.063Z,-0.49
2023-03-05T16:08:55.729Z,-0.43
2023-03-05T16:11:24.506Z,-0.32
2023-03-05T16:13:53.077Z,-0.35
2023-03-05T16:16:25.930Z,-0.35
2023-03-05T16:18:55.279Z,-0.76
2023-03-05T16:21:23.811Z,-0.54
2023-03-05T16:23:52.101Z,-0.28
2023-03-05T16:26:21.087Z,-0.18
2023-03-05T16:28:49.892Z,-0.12
2023-03-05T16:31:18.797Z,-0.16
2023-03-05T16:33:48.789Z,-0.24
2023-03-05T16:36:23.616Z,-0.27
2023-03-05T16:38:54.833Z,-0.26
2023-03-05T16:41:24.637Z,-0.51
2023-03-05T16:43:56.411Z,-0.77
2023-03-05T16:46:27.185Z,-0.86
2023-03-05T16:48:57.734Z,-0.57
2023-03-05T16:51:26.664Z,-0.44
2023-03-05T16:53:55.908Z,-0.11
2023-03-05T16:56:24.722Z,-0.24
2023-03-05T16:58:53.826Z,0.18
2023-03-05T17:01:23.097Z,-0.24
2023-03-05T17:03:53.752Z,-0.64
2023-03-05T17:06:27.361Z,-1.02
2023-03-05T17:08:56.908Z,-0.55
2023-03-05T17:11:26.538Z,0.05
2023-03-05T17:13:55.413Z,-0.24
2023-03-05T17:16:25.170Z,0.06
2023-03-05T17:18:53.861Z,0.08
2023-03-05T17:21:23.719Z,-0.29
2023-03-05T17:23:52.637Z,-0.66
2023-03-05T17:26:22.180Z,-0.48
2023-03-05T17:28:53.017Z,-0.21
2023-03-05T17:31:23.663Z,0.45
2023-03-05T17:33:52.733Z,-0.16
2023-03-05T17:36:24.579Z,-0.16
2023-03-05T17:38:54.694Z,0.26
2023-03-05T17:41:24.878Z,0.41
2023-03-05T17:43:54.093Z,0.47
2023-03-05T17:46:23.000Z,0.41
2023-03-05T17:48:52.018Z,0.14
2023-03-05T17:51:21.059Z,0.14
2023-03-05T17:53:51.448Z,0.28
2023-03-05T17:56:22.466Z,0.36
2023-03-05T17:58:52.036Z,0.28
2023-03-05T18:01:26.601Z,0.40
2023-03-05T18:03:56.146Z,0.16
2023-03-05T18:06:25.734Z,0.23
2023-03-05T18:08:56.359Z,0.48
2023-03-05T18:11:25.460Z,0.40
2023-03-05T18:13:54.477Z,0.73
2023-03-05T18:16:25.528Z,0.96
2023-03-05T18:18:54.458Z,0.15
2023-03-05T18:21:25.315Z,0.11
2023-03-05T18:23:55.753Z,0.27
2023-03-05T18:26:24.409Z,0.49
2023-03-05T18:28:52.931Z,0.56
2023-03-05T18:31:21.301Z,0.67
2023-03-05T18:33:50.454Z,0.65
2023-03-05T18:36:19.426Z,0.47
2023-03-05T18:38:48.027Z,-0.31
2023-03-05T18:41:20.671Z,0.31
2023-03-05T18:43:50.555Z,0.40
2023-03-05T18:46:19.416Z,0.57
2023-03-05T18:48:48.380Z,0.48
2023-03-05T18:51:19.267Z,0.90
2023-03-05T18:53:48.021Z,0.89
2023-03-05T18:56:17.634Z,0.96
2023-03-05T18:58:47.676Z,0.87
2023-03-05T19:01:17.754Z,0.74
2023-03-05T19:03:46.673Z,0.65
2023-03-05T19:06:16.148Z,0.74
2023-03-05T19:08:45.177Z,0.19
2023-03-05T19:11:20.294Z,0.23
2023-03-05T19:13:52.946Z,0.06
2023-03-05T19:16:23.426Z,-0.22
2023-03-05T19:19:15.488Z,0.12
2023-03-05T19:21:44.977Z,0.41
2023-03-05T19:24:14.062Z,0.30
2023-03-05T19:26:44.856Z,0.52
2023-03-05T19:29:13.674Z,0.21
2023-03-05T19:31:42.107Z,0.63
2023-03-05T19:34:10.397Z,0.48
2023-03-05T19:36:38.771Z,0.06
2023-03-05T19:39:09.056Z,0.12
2023-03-05T19:41:37.815Z,-0.17
2023-03-05T19:44:08.557Z,-0.60
2023-03-05T19:46:37.247Z,-0.49
2023-03-05T19:49:06.139Z,-0.58
2023-03-05T19:51:35.336Z,-0.57
2023-03-05T19:54:05.681Z,-0.15
2023-03-05T19:56:34.263Z,-0.06
2023-03-05T19:59:02.743Z,0.27
2023-03-05T20:01:32.732Z,0.06
2023-03-05T20:04:02.502Z,-0.45
2023-03-05T20:06:33.239Z,-0.58
2023-03-05T20:09:01.948Z,-0.66
2023-03-05T20:11:30.148Z,-0.25
2023-03-05T20:13:58.712Z,0.12
2023-03-05T20:16:29.823Z,0.01
2023-03-05T20:19:00.793Z,-0.02
2023-03-05T20:21:31.618Z,-0.34
2023-03-05T20:24:03.405Z,-0.46
2023-03-05T20:26:32.661Z,-0.56
2023-03-05T20:29:01.972Z,-0.32
2023-03-05T20:31:30.594Z,-0.27
2023-03-05T20:34:00.214Z,-0.02
2023-03-05T20:36:28.693Z,0.04
2023-03-05T20:38:57.410Z,0.31
2023-03-05T20:41:26.068Z,-0.49
2023-03-05T20:43:55.287Z,-0.63
2023-03-05T20:46:25.551Z,-0.22
2023-03-05T20:48:56.596Z,-0.33
2023-03-05T20:51:28.749Z,-0.23
2023-03-05T20:54:02.647Z,-0.06
2023-03-05T20:56:32.572Z,-0.25
2023-03-05T20:59:03.892Z,-0.12
2023-03-05T21:01:34.054Z,0.03
2023-03-05T21:04:03.267Z,-0.26
2023-03-05T21:06:33.933Z,-0.37
2023-03-05T21:09:02.910Z,-0.49
2023-03-05T21:11:32.081Z,-0.96
2023-03-05T21:14:00.659Z,-0.85
2023-03-05T21:16:29.520Z,-0.69
2023-03-05T21:18:58.277Z,-0.62
2023-03-05T21:21:26.423Z,-0.60
2023-03-05T21:23:56.342Z,-0.70
2023-03-05T21:26:25.077Z,-0.84
2023-03-05T21:28:55.706Z,-0.80
2023-03-05T21:31:24.851Z,-0.83
2023-03-05T21:33:53.439Z,-0.59
2023-03-05T21:36:21.888Z,-0.60
2023-03-05T21:38:50.573Z,-0.97
2023-03-05T21:41:21.338Z,-1.39
2023-03-05T21:43:49.983Z,-1.71
2023-03-05T21:46:18.236Z,-1.06
2023-03-05T21:48:46.994Z,-1.10
2023-03-05T21:52:10.662Z,-1.28
2023-03-05T21:54:39.763Z,-0.82
2023-03-05T21:57:12.433Z,-0.84
2023-03-05T21:59:42.096Z,-0.85
2023-03-05T22:02:12.699Z,-0.67
2023-03-05T22:04:41.729Z,-0.95
2023-03-05T22:07:10.567Z,-1.02
2023-03-05T22:09:39.347Z,-0.50
2023-03-05T22:12:23.033Z,-0.62
2023-03-05T22:14:55.193Z,-1.00
2023-03-05T22:17:23.797Z,-0.75
2023-03-05T22:19:52.210Z,-0.82
2023-03-05T22:22:20.520Z,-0.57
2023-03-05T22:24:50.249Z,-0.64
2023-03-05T22:27:18.727Z,-0.87
2023-03-05T22:29:47.228Z,-0.70
2023-03-05T22:32:16.951Z,-0.39
2023-03-05T22:34:45.390Z,-0.40
2023-03-05T22:37:13.987Z,-0.78
2023-03-05T22:39:42.604Z,-0.80
2023-03-05T22:42:11.052Z,-0.89
2023-03-05T22:44:39.552Z,-0.68
2023-03-05T22:47:08.065Z,-0.36
2023-03-05T22:49:38.189Z,-0.49
2023-03-05T22:52:07.275Z,-0.55
2023-03-05T22:54:35.638Z,-0.57
2023-03-05T22:57:04.140Z,-0.67
2023-03-05T22:59:32.726Z,-0.54
2023-03-05T23:02:01.004Z,-0.51
2023-03-05T23:04:49.669Z,-0.74
2023-03-05T23:07:19.404Z,-0.61
2023-03-05T23:09:52.691Z,-0.82
2023-03-05T23:12:21.748Z,-0.95
2023-03-05T23:14:50.297Z,-0.80
2023-03-05T23:17:18.538Z,-0.50
2023-03-05T23:19:48.505Z,-0.54
2023-03-05T23:22:17.079Z,-0.59
2023-03-05T23:24:45.670Z,-0.76
2023-03-05T23:27:17.720Z,-0.48
2023-03-05T23:30:17.869Z,-0.50
2023-03-05T23:32:51.788Z,-0.65
2023-03-05T23:35:24.845Z,-0.25
2023-03-05T23:37:57.641Z,-0.48
2023-03-05T23:40:28.396Z,-0.43
2023-03-05T23:42:56.993Z,-0.67
2023-03-05T23:45:26.131Z,-0.70
2023-03-05T23:47:54.930Z,-0.82
2023-03-05T23:50:27.667Z,-0.57
2023-03-05T23:53:02.057Z,-0.81
2023-03-05T23:55:33.138Z,-0.72
2023-03-05T23:58:04.348Z,-0.77
